Time;durP1;ratioP1;P1;durP2;ratioP2;P2;SDS_P1;SDS_P2;PMS_P1;PMS_P2;Temp;Humidity;BMP_temperature;BMP_pressure;BME280_temperature;BME280_humidity;BME280_pressure;Samples;Min_cycle;Max_cycle;Signal;HPM_P1;HPM_P2
2023/03/26 00:00:57;;;;;;;;;;;9.80;99.90;;;;;;2059717;28;19917;-72
2023/03/26 00:01:57;;;;;;;;;;;9.80;99.90;;;;;;2059249;28;19909;-73
2023/03/26 00:02:57;;;;;;;;;;;9.80;99.90;;;;;;2059235;28;19927;-73
2023/03/26 00:03:58;;;;;;;;;;;9.80;99.90;;;;;;2057652;28;21102;-73
2023/03/26 00:04:59;;;;;;;;;;;9.80;99.90;;;;;;2059361;28;19913;-73
2023/03/26 00:06:02;;;;;;;;;;;9.80;99.90;;;;;;2057765;28;19912;-73
2023/03/26 00:07:03;;;;;;;;;;;9.80;99.90;;;;;;2060440;28;20350;-73
2023/03/26 00:08:04;;;;;;;;;;;9.80;99.90;;;;;;2060348;28;19920;-73
2023/03/26 00:09:06;;;;;;;;;;;9.80;99.90;;;;;;2059407;28;19910;-73
2023/03/26 00:10:07;;;;;;;;;;;9.90;99.90;;;;;;2066798;28;20243;-73
2023/03/26 00:11:09;;;;;;;;;;;9.90;99.90;;;;;;2066647;28;19909;-72
2023/03/26 00:12:10;;;;;;;;;;;9.90;99.90;;;;;;2065572;28;20000;-73
2023/03/26 00:13:10;;;;;;;;;;;9.90;99.90;;;;;;2067691;28;19905;-73
2023/03/26 00:14:12;;;;;;;;;;;9.90;99.90;;;;;;2058986;28;20847;-73
2023/03/26 00:15:13;;;;;;;;;;;9.90;99.90;;;;;;2060919;28;19917;-73
2023/03/26 00:16:14;;;;;;;;;;;9.90;99.90;;;;;;2059326;28;20350;-72
2023/03/26 00:17:15;;;;;;;;;;;9.90;99.90;;;;;;2060116;28;19956;-73
2023/03/26 00:18:18;;;;;;;;;;;9.80;99.90;;;;;;2069364;28;19916;-73
2023/03/26 00:19:19;;;;;;;;;;;9.90;99.90;;;;;;2057814;28;19924;-72
2023/03/26 00:20:19;;;;;;;;;;;9.90;99.90;;;;;;2058200;28;19925;-73
2023/03/26 00:21:26;;;;;;;;;;;9.90;99.90;;;;;;2057071;28;19918;-73
2023/03/26 00:22:28;;;;;;;;;;;9.90;99.90;;;;;;2064014;28;20075;-73
2023/03/26 00:23:29;;;;;;;;;;;9.90;99.90;;;;;;2062329;28;19910;-73
2023/03/26 00:24:29;;;;;;;;;;;9.90;99.90;;;;;;2062771;28;20008;-72
2023/03/26 00:25:30;;;;;;;;;;;9.90;99.90;;;;;;2058785;28;20444;-73
2023/03/26 00:26:32;;;;;;;;;;;9.90;99.90;;;;;;2060754;28;19910;-72
2023/03/26 00:27:33;;;;;;;;;;;9.90;99.90;;;;;;2059145;28;19921;-73
2023/03/26 00:28:33;;;;;;;;;;;9.90;99.90;;;;;;2058005;28;19910;-73
2023/03/26 00:29:34;;;;;;;;;;;9.90;99.90;;;;;;2058991;28;19910;-73
2023/03/26 00:30:35;;;;;;;;;;;9.90;99.90;;;;;;2058445;28;20548;-72
2023/03/26 00:31:38;;;;;;;;;;;9.90;99.90;;;;;;2067589;28;20007;-72
2023/03/26 00:32:39;;;;;;;;;;;9.90;99.90;;;;;;2067324;28;19910;-73
2023/03/26 00:33:40;;;;;;;;;;;9.90;99.90;;;;;;2057083;28;20000;-72
2023/03/26 00:34:41;;;;;;;;;;;9.90;99.90;;;;;;2060508;28;19905;-73
2023/03/26 00:35:46;;;;;;;;;;;9.90;99.90;;;;;;2059604;28;19906;-73
2023/03/26 00:36:46;;;;;;;;;;;9.90;99.90;;;;;;2060070;28;20040;-73
2023/03/26 00:37:50;;;;;;;;;;;9.90;99.90;;;;;;2059128;28;19910;-73
2023/03/26 00:38:51;;;;;;;;;;;9.90;99.90;;;;;;2060374;28;19913;-73
2023/03/26 00:39:52;;;;;;;;;;;9.90;99.90;;;;;;2065376;28;19909;-73
2023/03/26 00:40:53;;;;;;;;;;;9.90;99.90;;;;;;2065015;28;19905;-73
2023/03/26 00:41:54;;;;;;;;;;;9.90;99.90;;;;;;2057746;28;19995;-73
2023/03/26 00:42:54;;;;;;;;;;;9.90;99.90;;;;;;2058691;28;20399;-73
2023/03/26 00:43:56;;;;;;;;;;;9.90;99.90;;;;;;2058435;28;19945;-73
2023/03/26 00:44:57;;;;;;;;;;;9.90;99.90;;;;;;2058260;28;19913;-73
2023/03/26 00:45:57;;;;;;;;;;;9.90;99.90;;;;;;2059557;28;19998;-73
2023/03/26 00:46:58;;;;;;;;;;;9.90;99.90;;;;;;2059504;28;19910;-73
2023/03/26 00:47:58;;;;;;;;;;;9.90;99.90;;;;;;2074625;28;19908;-73
2023/03/26 00:49:00;;;;;;;;;;;9.90;99.90;;;;;;2075768;28;19908;-73
2023/03/26 00:50:02;;;;;;;;;;;9.90;99.90;;;;;;2065329;28;19921;-73
2023/03/26 00:51:03;;;;;;;;;;;9.90;99.90;;;;;;2067988;28;19921;-73
2023/03/26 00:52:07;;;;;;;;;;;9.90;99.90;;;;;;2059216;28;19949;-72
2023/03/26 00:53:08;;;;;;;;;;;9.90;99.90;;;;;;2068231;28;20341;-73
2023/03/26 00:54:08;;;;;;;;;;;9.90;99.90;;;;;;2068060;28;19913;-73
2023/03/26 00:55:09;;;;;;;;;;;9.90;99.90;;;;;;2058364;28;19913;-72
2023/03/26 00:56:10;;;;;;;;;;;9.90;99.90;;;;;;2066839;28;20320;-73
2023/03/26 00:57:12;;;;;;;;;;;9.90;99.90;;;;;;2065452;28;20029;-73
2023/03/26 00:58:12;;;;;;;;;;;9.90;99.90;;;;;;2064121;28;19916;-73
2023/03/26 00:59:13;;;;;;;;;;;9.90;99.90;;;;;;2067028;28;20411;-73
2023/03/26 01:00:14;;;;;;;;;;;9.90;99.90;;;;;;2058470;28;19944;-72
2023/03/26 01:01:17;;;;;;;;;;;9.90;99.90;;;;;;2061195;28;20342;-73
2023/03/26 01:02:19;;;;;;;;;;;9.90;99.90;;;;;;2059046;28;20017;-73
2023/03/26 01:03:20;;;;;;;;;;;9.90;99.90;;;;;;2061064;28;19945;-73
2023/03/26 01:04:26;;;;;;;;;;;9.90;99.90;;;;;;2058755;28;19910;-73
2023/03/26 01:05:32;;;;;;;;;;;9.90;99.90;;;;;;2065671;28;19976;-73
2023/03/26 01:06:36;;;;;;;;;;;9.90;99.90;;;;;;2067820;28;19909;-73
2023/03/26 01:07:37;;;;;;;;;;;9.90;99.90;;;;;;2057564;28;19910;-73
2023/03/26 01:08:41;;;;;;;;;;;9.90;99.90;;;;;;2059375;28;19933;-73
2023/03/26 01:09:43;;;;;;;;;;;9.90;99.90;;;;;;2059684;28;19913;-73
2023/03/26 01:10:49;;;;;;;;;;;9.90;99.90;;;;;;2057247;28;20301;-73
2023/03/26 01:11:50;;;;;;;;;;;9.90;99.90;;;;;;2057704;28;19917;-73
2023/03/26 01:12:50;;;;;;;;;;;9.90;99.90;;;;;;2059487;28;19956;-72
2023/03/26 01:13:59;;;;;;;;;;;9.80;99.90;;;;;;2057644;28;20681;-73
2023/03/26 01:15:00;;;;;;;;;;;9.90;99.90;;;;;;2057067;28;20064;-73
2023/03/26 01:16:00;;;;;;;;;;;9.90;99.90;;;;;;2057447;28;19913;-73
2023/03/26 01:17:02;;;;;;;;;;;9.90;99.90;;;;;;2059220;28;19921;-73
2023/03/26 01:18:04;;;;;;;;;;;9.90;99.90;;;;;;2058806;28;19988;-73
2023/03/26 01:19:15;;;;;;;;;;;9.80;99.90;;;;;;2065134;28;19910;-72
2023/03/26 01:20:18;;;;;;;;;;;9.80;99.90;;;;;;2063709;28;19909;-73
2023/03/26 01:21:27;;;;;;;;;;;9.80;99.90;;;;;;2058583;28;19993;-73
2023/03/26 01:22:27;;;;;;;;;;;9.80;99.90;;;;;;2057404;28;20052;-73
2023/03/26 01:23:32;;;;;;;;;;;9.80;99.90;;;;;;2061550;28;19944;-73
2023/03/26 01:24:33;;;;;;;;;;;9.80;99.90;;;;;;2058150;28;19980;-73
2023/03/26 01:25:37;;;;;;;;;;;9.80;99.90;;;;;;2058200;28;19961;-73
2023/03/26 01:26:53;;;;;;;;;;;9.80;99.90;;;;;;2057957;28;19949;-73
2023/03/26 01:27:54;;;;;;;;;;;9.80;99.90;;;;;;2057831;28;19914;-73
2023/03/26 01:28:57;;;;;;;;;;;9.90;99.90;;;;;;2057499;28;20301;-73
2023/03/26 01:30:06;;;;;;;;;;;9.80;99.90;;;;;;2057926;28;20381;-73
2023/03/26 01:31:14;;;;;;;;;;;9.80;99.90;;;;;;2057309;28;19914;-72
2023/03/26 01:32:22;;;;;;;;;;;9.80;99.90;;;;;;2059263;28;19906;-72
2023/03/26 01:33:28;;;;;;;;;;;9.80;99.90;;;;;;2057586;28;19910;-73
2023/03/26 01:34:52;;;;;;;;;;;9.90;99.90;;;;;;2058020;28;20267;-73
2023/03/26 01:35:59;;;;;;;;;;;9.80;99.90;;;;;;2059555;28;19906;-73
2023/03/26 01:37:08;;;;;;;;;;;9.80;99.90;;;;;;2059950;28;20320;-73
2023/03/26 01:38:21;;;;;;;;;;;9.80;99.90;;;;;;2057983;28;19910;-73
2023/03/26 01:39:37;;;;;;;;;;;9.80;99.90;;;;;;2059837;28;19910;-73
2023/03/26 01:40:48;;;;;;;;;;;9.80;99.90;;;;;;2058983;28;20013;-72
2023/03/26 01:41:52;;;;;;;;;;;9.80;99.90;;;;;;2057566;28;19910;-73
2023/03/26 01:42:55;;;;;;;;;;;9.80;99.90;;;;;;2058170;28;20390;-73
2023/03/26 01:44:02;;;;;;;;;;;9.80;99.90;;;;;;2058364;28;20079;-72
2023/03/26 01:45:08;;;;;;;;;;;9.80;99.90;;;;;;2057342;28;19956;-73
2023/03/26 01:46:10;;;;;;;;;;;9.80;99.90;;;;;;2073655;28;19916;-73
2023/03/26 01:47:11;;;;;;;;;;;9.80;99.90;;;;;;2074139;28;19943;-72
2023/03/26 01:48:12;;;;;;;;;;;9.80;99.90;;;;;;2058699;28;19909;-73
2023/03/26 01:49:13;;;;;;;;;;;9.80;99.90;;;;;;2058633;28;20362;-73
2023/03/26 01:50:14;;;;;;;;;;;9.80;99.90;;;;;;2058480;28;19910;-72
2023/03/26 01:51:25;;;;;;;;;;;9.80;99.90;;;;;;2058552;28;19917;-73
2023/03/26 01:52:26;;;;;;;;;;;9.80;99.90;;;;;;2059443;28;20251;-73
2023/03/26 01:53:26;;;;;;;;;;;9.80;99.90;;;;;;2057141;28;19914;-73
2023/03/26 01:54:29;;;;;;;;;;;9.80;99.90;;;;;;2056345;28;20617;-73
2023/03/26 01:55:40;;;;;;;;;;;9.80;99.90;;;;;;2056759;28;19910;-73
2023/03/26 01:56:43;;;;;;;;;;;9.80;99.90;;;;;;2058409;28;19921;-73
2023/03/26 01:58:10;;;;;;;;;;;9.90;99.90;;;;;;2060767;28;19918;-73
2023/03/26 01:59:16;;;;;;;;;;;9.80;99.90;;;;;;2073243;28;20289;-72
2023/03/26 02:00:17;;;;;;;;;;;9.80;99.90;;;;;;2057825;28;19910;-72
2023/03/26 02:01:18;;;;;;;;;;;9.80;99.90;;;;;;2058182;28;19910;-73
2023/03/26 02:02:18;;;;;;;;;;;9.80;99.90;;;;;;2058828;28;19910;-73
2023/03/26 02:03:25;;;;;;;;;;;9.80;99.90;;;;;;2058850;28;19964;-73
2023/03/26 02:04:32;;;;;;;;;;;9.90;99.90;;;;;;2058686;28;20358;-73
2023/03/26 02:05:40;;;;;;;;;;;9.90;99.90;;;;;;2065469;28;19910;-73
2023/03/26 02:06:45;;;;;;;;;;;9.90;99.90;;;;;;2073410;28;19909;-73
2023/03/26 02:07:54;;;;;;;;;;;9.90;99.90;;;;;;2071521;28;20269;-73
2023/03/26 02:08:57;;;;;;;;;;;9.90;99.90;;;;;;2057067;28;19917;-73
2023/03/26 02:10:00;;;;;;;;;;;9.90;99.90;;;;;;2058451;28;19909;-73
2023/03/26 02:11:04;;;;;;;;;;;9.90;99.90;;;;;;2057401;28;19909;-72
2023/03/26 02:12:04;;;;;;;;;;;9.90;99.90;;;;;;2058785;28;19914;-72
2023/03/26 02:13:05;;;;;;;;;;;9.90;99.90;;;;;;2058593;28;19945;-73
2023/03/26 02:14:07;;;;;;;;;;;9.90;99.90;;;;;;2060935;28;19913;-73
2023/03/26 02:15:08;;;;;;;;;;;9.90;99.90;;;;;;2060554;28;20007;-73
2023/03/26 02:16:12;;;;;;;;;;;9.90;99.90;;;;;;2057172;28;19910;-73
2023/03/26 02:17:13;;;;;;;;;;;9.90;99.90;;;;;;2059068;28;19910;-73
2023/03/26 02:18:14;;;;;;;;;;;9.90;99.90;;;;;;2058034;28;19909;-73
2023/03/26 02:19:20;;;;;;;;;;;9.90;99.90;;;;;;2059151;28;19912;-73
2023/03/26 02:20:20;;;;;;;;;;;9.90;99.90;;;;;;2063735;28;19914;-73
2023/03/26 02:21:24;;;;;;;;;;;9.90;99.90;;;;;;2065121;28;19945;-73
2023/03/26 02:22:28;;;;;;;;;;;9.90;99.90;;;;;;2058341;28;19914;-73
2023/03/26 02:23:34;;;;;;;;;;;9.90;99.90;;;;;;2058595;28;19925;-73
2023/03/26 02:24:35;;;;;;;;;;;9.80;99.90;;;;;;2059498;28;19909;-73
2023/03/26 02:25:38;;;;;;;;;;;9.90;99.90;;;;;;2059049;28;19949;-73
2023/03/26 02:26:39;;;;;;;;;;;9.90;99.90;;;;;;2058095;28;19909;-73
2023/03/26 02:27:40;;;;;;;;;;;9.80;99.90;;;;;;2058893;28;20014;-73
2023/03/26 02:28:40;;;;;;;;;;;9.80;99.90;;;;;;2064267;28;20513;-73
2023/03/26 02:29:41;;;;;;;;;;;9.90;99.90;;;;;;2058493;28;20386;-73
2023/03/26 02:30:44;;;;;;;;;;;9.80;99.90;;;;;;2057913;28;19917;-72
2023/03/26 02:31:47;;;;;;;;;;;9.80;99.90;;;;;;2057371;28;19957;-72
2023/03/26 02:32:50;;;;;;;;;;;9.80;99.90;;;;;;2058039;28;19917;-73
2023/03/26 02:33:51;;;;;;;;;;;9.80;99.90;;;;;;2057486;28;19910;-73
2023/03/26 02:34:52;;;;;;;;;;;9.80;99.90;;;;;;2057780;28;19910;-73
2023/03/26 02:35:53;;;;;;;;;;;9.80;99.90;;;;;;2057158;28;20688;-72
2023/03/26 02:36:53;;;;;;;;;;;9.80;99.90;;;;;;2058235;28;19910;-73
2023/03/26 02:37:54;;;;;;;;;;;9.80;99.90;;;;;;2074646;28;19909;-73
2023/03/26 02:38:56;;;;;;;;;;;9.80;99.90;;;;;;2073506;28;19920;-73
2023/03/26 02:39:57;;;;;;;;;;;9.80;99.90;;;;;;2055840;28;19910;-73
2023/03/26 02:40:57;;;;;;;;;;;9.80;99.90;;;;;;2058149;28;19920;-73
2023/03/26 02:41:57;;;;;;;;;;;9.80;99.90;;;;;;2066162;28;19906;-73
2023/03/26 02:42:59;;;;;;;;;;;9.80;99.90;;;;;;2066592;28;20344;-73
2023/03/26 02:43:59;;;;;;;;;;;9.70;99.90;;;;;;2058780;28;19952;-73
2023/03/26 02:45:00;;;;;;;;;;;9.70;99.90;;;;;;2059986;28;19967;-73
2023/03/26 02:46:00;;;;;;;;;;;9.70;99.90;;;;;;2058202;28;19993;-73
2023/03/26 02:47:00;;;;;;;;;;;9.70;99.90;;;;;;2059824;28;19909;-73
2023/03/26 02:48:01;;;;;;;;;;;9.70;99.90;;;;;;2056682;28;20272;-73
2023/03/26 02:49:01;;;;;;;;;;;9.70;99.90;;;;;;2055965;28;19909;-73
2023/03/26 02:50:03;;;;;;;;;;;9.70;99.90;;;;;;2057849;28;20004;-73
2023/03/26 02:51:05;;;;;;;;;;;9.70;99.90;;;;;;2057205;28;19910;-73
2023/03/26 02:52:05;;;;;;;;;;;9.70;99.90;;;;;;2057277;28;20008;-73
2023/03/26 02:53:06;;;;;;;;;;;9.70;99.90;;;;;;2059376;28;19926;-73
2023/03/26 02:54:07;;;;;;;;;;;9.70;99.90;;;;;;2059210;28;19973;-73
2023/03/26 02:55:07;;;;;;;;;;;9.70;99.90;;;;;;2059403;28;19924;-73
2023/03/26 02:56:08;;;;;;;;;;;9.70;99.90;;;;;;2059334;28;19910;-73
2023/03/26 02:57:08;;;;;;;;;;;9.70;99.90;;;;;;2059592;28;19917;-72
2023/03/26 02:58:09;;;;;;;;;;;9.70;99.90;;;;;;2060687;28;19956;-73
2023/03/26 02:59:10;;;;;;;;;;;9.70;99.90;;;;;;2060249;28;19906;-73
2023/03/26 03:00:15;;;;;;;;;;;9.70;99.90;;;;;;2060268;28;19945;-73
2023/03/26 03:01:17;;;;;;;;;;;9.70;99.90;;;;;;2060947;28;19977;-73
2023/03/26 03:02:18;;;;;;;;;;;9.70;99.90;;;;;;2067448;28;19910;-73
2023/03/26 03:03:22;;;;;;;;;;;9.70;99.90;;;;;;2066115;28;19910;-73
2023/03/26 03:04:23;;;;;;;;;;;9.70;99.90;;;;;;2058984;28;19920;-73
2023/03/26 03:05:30;;;;;;;;;;;9.70;99.90;;;;;;2059571;28;19912;-73
2023/03/26 03:06:31;;;;;;;;;;;9.70;99.90;;;;;;2066476;28;20661;-73
2023/03/26 03:07:31;;;;;;;;;;;9.70;99.90;;;;;;2066033;28;19949;-73
2023/03/26 03:08:32;;;;;;;;;;;9.70;99.90;;;;;;2058905;28;20626;-72
2023/03/26 03:09:33;;;;;;;;;;;9.70;99.90;;;;;;2059421;28;19921;-73
2023/03/26 03:10:34;;;;;;;;;;;9.70;99.90;;;;;;2066652;28;19905;-73
2023/03/26 03:11:35;;;;;;;;;;;9.70;99.90;;;;;;2069716;28;19917;-73
2023/03/26 03:12:35;;;;;;;;;;;9.70;99.90;;;;;;2059616;28;19910;-73
2023/03/26 03:13:36;;;;;;;;;;;9.70;99.90;;;;;;2059818;28;19917;-73
2023/03/26 03:14:36;;;;;;;;;;;9.70;99.90;;;;;;2060178;28;19912;-73
2023/03/26 03:15:37;;;;;;;;;;;9.70;99.90;;;;;;2059391;28;19957;-73
2023/03/26 03:16:37;;;;;;;;;;;9.80;99.90;;;;;;2059650;28;19909;-73
2023/03/26 03:17:39;;;;;;;;;;;9.80;99.90;;;;;;2060410;28;19913;-73
2023/03/26 03:18:39;;;;;;;;;;;9.70;99.90;;;;;;2059170;28;20364;-73
2023/03/26 03:19:40;;;;;;;;;;;9.70;99.90;;;;;;2075280;28;19932;-73
2023/03/26 03:20:40;;;;;;;;;;;9.80;99.90;;;;;;2074717;28;19909;-73
2023/03/26 03:21:41;;;;;;;;;;;9.70;99.90;;;;;;2058619;28;20540;-73
2023/03/26 03:22:41;;;;;;;;;;;9.80;99.90;;;;;;2061264;28;19909;-73
2023/03/26 03:23:42;;;;;;;;;;;9.80;99.90;;;;;;2057772;28;19910;-73
2023/03/26 03:24:42;;;;;;;;;;;9.80;99.90;;;;;;2057897;28;19913;-73
2023/03/26 03:25:43;;;;;;;;;;;9.80;99.90;;;;;;2059756;28;19941;-73
2023/03/26 03:26:44;;;;;;;;;;;9.80;99.90;;;;;;2067637;28;20715;-73
2023/03/26 03:27:45;;;;;;;;;;;9.80;99.90;;;;;;2065703;28;19952;-73
2023/03/26 03:28:45;;;;;;;;;;;9.80;99.90;;;;;;2058079;28;19960;-73
2023/03/26 03:29:46;;;;;;;;;;;9.80;99.90;;;;;;2060180;28;19909;-72
2023/03/26 03:30:47;;;;;;;;;;;9.80;99.90;;;;;;2059710;28;20044;-73
2023/03/26 03:31:48;;;;;;;;;;;9.80;99.90;;;;;;2059602;28;19910;-73
2023/03/26 03:32:48;;;;;;;;;;;9.80;99.90;;;;;;2059258;28;19910;-73
2023/03/26 03:33:49;;;;;;;;;;;9.80;99.90;;;;;;2059442;28;19910;-73
2023/03/26 03:34:50;;;;;;;;;;;9.80;99.90;;;;;;2060800;28;19909;-73
2023/03/26 03:35:50;;;;;;;;;;;9.80;99.90;;;;;;2061445;28;20305;-73
2023/03/26 03:36:51;;;;;;;;;;;9.80;99.90;;;;;;2059761;28;19910;-73
2023/03/26 03:37:51;;;;;;;;;;;9.80;99.90;;;;;;2059675;28;19968;-73
2023/03/26 03:38:52;;;;;;;;;;;9.90;99.90;;;;;;2060424;28;19959;-73
2023/03/26 03:39:52;;;;;;;;;;;9.90;99.90;;;;;;2058353;28;19910;-73
2023/03/26 03:40:54;;;;;;;;;;;9.90;99.90;;;;;;2060081;28;19910;-73
2023/03/26 03:41:54;;;;;;;;;;;9.90;99.90;;;;;;2059522;28;19909;-73
2023/03/26 03:42:55;;;;;;;;;;;9.80;99.90;;;;;;2059296;28;19917;-73
2023/03/26 03:43:57;;;;;;;;;;;9.90;99.90;;;;;;2062148;28;19918;-73
2023/03/26 03:44:58;;;;;;;;;;;9.90;99.90;;;;;;2061357;28;19910;-73
2023/03/26 03:45:59;;;;;;;;;;;9.80;99.90;;;;;;2060144;28;19964;-73
2023/03/26 03:46:59;;;;;;;;;;;9.80;99.90;;;;;;2060940;28;19910;-73
2023/03/26 03:48:00;;;;;;;;;;;9.80;99.90;;;;;;2059582;28;19917;-73
2023/03/26 03:49:01;;;;;;;;;;;9.80;99.90;;;;;;2075995;28;19912;-73
2023/03/26 03:50:02;;;;;;;;;;;9.80;99.90;;;;;;2075135;28;19913;-73
2023/03/26 03:51:02;;;;;;;;;;;9.80;99.90;;;;;;2059067;28;20368;-72
2023/03/26 03:52:04;;;;;;;;;;;9.80;99.90;;;;;;2060038;28;19925;-73
2023/03/26 03:53:05;;;;;;;;;;;9.80;99.90;;;;;;2058988;28;19933;-73
2023/03/26 03:54:05;;;;;;;;;;;9.70;99.90;;;;;;2058468;28;20040;-73
2023/03/26 03:55:06;;;;;;;;;;;9.70;99.90;;;;;;2066537;28;19964;-73
2023/03/26 03:56:08;;;;;;;;;;;9.70;99.90;;;;;;2066530;28;19906;-73
2023/03/26 03:57:09;;;;;;;;;;;9.70;99.90;;;;;;2059827;28;19910;-73
2023/03/26 03:58:10;;;;;;;;;;;9.70;99.90;;;;;;2060377;28;19909;-73
2023/03/26 03:59:11;;;;;;;;;;;9.70;99.90;;;;;;2059693;28;19910;-73
2023/03/26 04:00:13;;;;;;;;;;;9.70;99.90;;;;;;2058199;28;20482;-73
2023/03/26 04:01:15;;;;;;;;;;;9.70;99.90;;;;;;2060376;28;19913;-73
2023/03/26 04:02:24;;;;;;;;;;;9.60;99.90;;;;;;2060220;28;19940;-73
2023/03/26 04:03:26;;;;;;;;;;;9.60;99.90;;;;;;2058888;28;20367;-73
2023/03/26 04:04:27;;;;;;;;;;;9.60;99.90;;;;;;2058329;28;19986;-73
2023/03/26 04:05:27;;;;;;;;;;;9.60;99.90;;;;;;2059855;28;19910;-73
2023/03/26 04:06:29;;;;;;;;;;;9.60;99.90;;;;;;2059593;28;19910;-73
2023/03/26 04:07:31;;;;;;;;;;;9.60;99.90;;;;;;2058253;28;19940;-73
2023/03/26 04:08:31;;;;;;;;;;;9.60;99.90;;;;;;2058174;28;19913;-73
2023/03/26 04:09:32;;;;;;;;;;;9.60;99.90;;;;;;2059996;28;19909;-73
2023/03/26 04:10:32;;;;;;;;;;;9.50;99.90;;;;;;2059637;28;19909;-73
2023/03/26 04:11:32;;;;;;;;;;;9.50;99.90;;;;;;2058909;28;20270;-73
2023/03/26 04:12:33;;;;;;;;;;;9.50;99.90;;;;;;2067995;28;19919;-72
2023/03/26 04:13:33;;;;;;;;;;;9.50;99.90;;;;;;2064022;28;20259;-73
2023/03/26 04:14:34;;;;;;;;;;;9.50;99.90;;;;;;2058415;28;19917;-73
2023/03/26 04:15:35;;;;;;;;;;;9.50;99.90;;;;;;2058417;28;19914;-73
2023/03/26 04:16:35;;;;;;;;;;;9.50;99.90;;;;;;2067687;28;20447;-73
2023/03/26 04:17:41;;;;;;;;;;;9.40;99.90;;;;;;2065957;28;20000;-73
2023/03/26 04:18:44;;;;;;;;;;;9.40;99.90;;;;;;2058484;28;19964;-73
2023/03/26 04:19:45;;;;;;;;;;;9.40;99.90;;;;;;2059105;28;19910;-73
2023/03/26 04:20:46;;;;;;;;;;;9.40;99.90;;;;;;2059212;28;19921;-73
2023/03/26 04:21:48;;;;;;;;;;;9.40;99.90;;;;;;2058728;28;19910;-73
2023/03/26 04:22:48;;;;;;;;;;;9.40;99.90;;;;;;2058059;28;19905;-73
2023/03/26 04:23:49;;;;;;;;;;;9.30;99.90;;;;;;2058162;28;20033;-73
2023/03/26 04:24:53;;;;;;;;;;;9.40;99.90;;;;;;2058783;28;19917;-73
2023/03/26 04:25:54;;;;;;;;;;;9.30;99.90;;;;;;2058523;28;20012;-73
2023/03/26 04:26:57;;;;;;;;;;;9.30;99.90;;;;;;2058242;28;19910;-73
2023/03/26 04:28:00;;;;;;;;;;;9.30;99.90;;;;;;2058752;28;19906;-73
2023/03/26 04:29:03;;;;;;;;;;;9.30;99.90;;;;;;2060056;28;19910;-73
2023/03/26 04:30:05;;;;;;;;;;;9.30;99.90;;;;;;2058501;28;20273;-73
2023/03/26 04:31:05;;;;;;;;;;;9.30;99.90;;;;;;2058808;28;19920;-73
2023/03/26 04:32:11;;;;;;;;;;;9.30;99.90;;;;;;2060978;28;19921;-73
2023/03/26 04:33:14;;;;;;;;;;;9.30;99.90;;;;;;2060340;28;19942;-73
2023/03/26 04:34:24;;;;;;;;;;;9.30;99.90;;;;;;2058259;28;20041;-73
2023/03/26 04:35:24;;;;;;;;;;;9.30;99.90;;;;;;2059366;28;19919;-73
2023/03/26 04:36:27;;;;;;;;;;;9.30;99.90;;;;;;2057908;28;19918;-73
2023/03/26 04:37:31;;;;;;;;;;;9.30;99.90;;;;;;2059210;28;19952;-73
2023/03/26 04:38:38;;;;;;;;;;;9.30;99.90;;;;;;2060075;28;19913;-73
2023/03/26 04:39:39;;;;;;;;;;;9.30;99.90;;;;;;2059406;28;20588;-73
2023/03/26 04:40:41;;;;;;;;;;;9.30;99.90;;;;;;2060060;28;19940;-73
2023/03/26 04:41:41;;;;;;;;;;;9.30;99.90;;;;;;2057294;28;19910;-73
2023/03/26 04:42:44;;;;;;;;;;;9.20;99.90;;;;;;2061165;28;19910;-73
2023/03/26 04:43:49;;;;;;;;;;;9.20;99.90;;;;;;2062687;28;20285;-73
2023/03/26 04:44:51;;;;;;;;;;;9.30;99.90;;;;;;2059317;28;19917;-73
2023/03/26 04:45:51;;;;;;;;;;;9.20;99.90;;;;;;2060963;28;19910;-73
2023/03/26 04:46:52;;;;;;;;;;;9.20;99.90;;;;;;2067397;28;19910;-73
2023/03/26 04:47:52;;;;;;;;;;;9.20;99.90;;;;;;2066195;28;20004;-73
2023/03/26 04:48:53;;;;;;;;;;;9.20;99.90;;;;;;2058608;28;19910;-73
2023/03/26 04:49:54;;;;;;;;;;;9.20;99.90;;;;;;2057501;28;20709;-73
2023/03/26 04:50:55;;;;;;;;;;;9.20;99.90;;;;;;2060877;28;19910;-73
2023/03/26 04:51:55;;;;;;;;;;;9.20;99.90;;;;;;2062723;28;19957;-73
2023/03/26 04:52:57;;;;;;;;;;;9.20;99.90;;;;;;2056386;28;20704;-73
2023/03/26 04:53:58;;;;;;;;;;;9.20;99.90;;;;;;2058888;28;20269;-73
2023/03/26 04:54:59;;;;;;;;;;;9.20;99.90;;;;;;2059435;28;20090;-73
2023/03/26 04:56:04;;;;;;;;;;;9.10;99.90;;;;;;2057355;28;20014;-73
2023/03/26 04:57:08;;;;;;;;;;;9.10;99.90;;;;;;2065976;28;19916;-73
2023/03/26 04:58:09;;;;;;;;;;;9.10;99.90;;;;;;2061064;28;19959;-73
2023/03/26 04:59:12;;;;;;;;;;;9.10;99.90;;;;;;2060282;28;19909;-73
2023/03/26 05:00:14;;;;;;;;;;;9.10;99.90;;;;;;2060233;28;19996;-73
2023/03/26 05:01:15;;;;;;;;;;;9.10;99.90;;;;;;2057962;28;19906;-73
2023/03/26 05:02:16;;;;;;;;;;;9.10;99.90;;;;;;2059648;28;19909;-73
2023/03/26 05:03:19;;;;;;;;;;;9.10;99.90;;;;;;2060314;28;19909;-73
2023/03/26 05:04:20;;;;;;;;;;;9.10;99.90;;;;;;2060452;28;20025;-73
2023/03/26 05:05:21;;;;;;;;;;;9.10;99.90;;;;;;2073412;28;19921;-73
2023/03/26 05:06:21;;;;;;;;;;;9.10;99.90;;;;;;2075626;28;19998;-73
2023/03/26 05:07:22;;;;;;;;;;;9.10;99.90;;;;;;2057974;28;19906;-73
2023/03/26 05:08:23;;;;;;;;;;;9.10;99.90;;;;;;2057584;28;19956;-73
2023/03/26 05:09:24;;;;;;;;;;;9.10;99.90;;;;;;2058697;28;19914;-73
2023/03/26 05:10:25;;;;;;;;;;;9.10;99.90;;;;;;2057158;28;19914;-73
2023/03/26 05:11:25;;;;;;;;;;;9.10;99.90;;;;;;2058517;28;19913;-73
2023/03/26 05:12:25;;;;;;;;;;;9.10;99.90;;;;;;2057757;28;19914;-73
2023/03/26 05:13:26;;;;;;;;;;;9.10;99.90;;;;;;2066025;28;20380;-73
2023/03/26 05:14:26;;;;;;;;;;;9.10;99.90;;;;;;2060463;28;20004;-72
2023/03/26 05:15:27;;;;;;;;;;;9.10;99.90;;;;;;2060134;28;20360;-73
2023/03/26 05:16:28;;;;;;;;;;;9.10;99.90;;;;;;2057473;28;19945;-73
2023/03/26 05:17:33;;;;;;;;;;;9.10;99.90;;;;;;2057369;28;19917;-73
2023/03/26 05:18:34;;;;;;;;;;;9.00;99.90;;;;;;2057485;28;20430;-73
2023/03/26 05:19:34;;;;;;;;;;;9.10;99.90;;;;;;2058368;28;20262;-73
2023/03/26 05:20:35;;;;;;;;;;;9.10;99.90;;;;;;2058623;28;20008;-73
2023/03/26 05:21:36;;;;;;;;;;;9.10;99.90;;;;;;2059488;28;20329;-73
2023/03/26 05:22:37;;;;;;;;;;;9.00;99.90;;;;;;2059922;28;19940;-73
2023/03/26 05:23:37;;;;;;;;;;;9.10;99.90;;;;;;2059190;28;19929;-73
2023/03/26 05:24:38;;;;;;;;;;;9.10;99.90;;;;;;2059569;28;19933;-73
2023/03/26 05:25:38;;;;;;;;;;;9.10;99.90;;;;;;2058887;28;19912;-73
2023/03/26 05:26:39;;;;;;;;;;;9.10;99.90;;;;;;2059916;28;19988;-73
2023/03/26 05:27:39;;;;;;;;;;;9.10;99.90;;;;;;2059958;28;19960;-73
2023/03/26 05:28:40;;;;;;;;;;;9.10;99.90;;;;;;2058735;28;19964;-73
2023/03/26 05:29:41;;;;;;;;;;;9.10;99.90;;;;;;2058944;28;19916;-73
2023/03/26 05:30:42;;;;;;;;;;;9.10;99.90;;;;;;2059272;28;19913;-73
2023/03/26 05:31:43;;;;;;;;;;;9.10;99.90;;;;;;2059230;28;20004;-73
2023/03/26 05:32:45;;;;;;;;;;;9.10;99.90;;;;;;2058637;28;19909;-73
2023/03/26 05:33:47;;;;;;;;;;;9.10;99.90;;;;;;2057166;28;19914;-73
2023/03/26 05:34:47;;;;;;;;;;;9.10;99.90;;;;;;2072472;28;19909;-73
2023/03/26 05:35:57;;;;;;;;;;;9.20;99.90;;;;;;2073672;28;19999;-73
2023/03/26 05:36:58;;;;;;;;;;;9.20;99.90;;;;;;2065732;28;19956;-73
2023/03/26 05:37:58;;;;;;;;;;;9.20;99.90;;;;;;2067797;28;19991;-73
2023/03/26 05:38:59;;;;;;;;;;;9.20;99.90;;;;;;2059263;28;19910;-73
2023/03/26 05:40:00;;;;;;;;;;;9.20;99.90;;;;;;2057892;28;20244;-73
2023/03/26 05:41:02;;;;;;;;;;;9.20;99.90;;;;;;2058680;28;19917;-73
2023/03/26 05:42:02;;;;;;;;;;;9.20;99.90;;;;;;2061109;28;19909;-73
2023/03/26 05:43:03;;;;;;;;;;;9.20;99.90;;;;;;2059054;28;19945;-73
2023/03/26 05:44:03;;;;;;;;;;;9.30;99.90;;;;;;2057909;28;20357;-73
2023/03/26 05:45:06;;;;;;;;;;;9.30;99.90;;;;;;2058254;28;20368;-73
2023/03/26 05:46:06;;;;;;;;;;;9.30;99.90;;;;;;2057277;28;19914;-73
2023/03/26 05:47:07;;;;;;;;;;;9.30;99.90;;;;;;2058957;28;20381;-73
2023/03/26 05:48:07;;;;;;;;;;;9.30;99.90;;;;;;2058243;28;20396;-73
2023/03/26 05:49:08;;;;;;;;;;;9.30;99.90;;;;;;2058105;28;19910;-73
2023/03/26 05:50:09;;;;;;;;;;;9.30;99.90;;;;;;2057516;28;20308;-73
2023/03/26 05:51:11;;;;;;;;;;;9.40;99.90;;;;;;2057782;28;19924;-73
2023/03/26 05:52:14;;;;;;;;;;;9.30;99.90;;;;;;2060046;28;19909;-73
2023/03/26 05:53:14;;;;;;;;;;;9.40;99.90;;;;;;2073303;28;19909;-73
2023/03/26 05:54:15;;;;;;;;;;;9.40;99.90;;;;;;2074032;28;19996;-73
2023/03/26 05:55:17;;;;;;;;;;;9.40;99.90;;;;;;2058919;28;19988;-73
2023/03/26 05:56:17;;;;;;;;;;;9.40;99.90;;;;;;2058996;28;19910;-73
2023/03/26 05:57:18;;;;;;;;;;;9.40;99.90;;;;;;2058656;28;19944;-73
2023/03/26 05:58:18;;;;;;;;;;;9.40;99.90;;;;;;2057824;28;20330;-73
2023/03/26 05:59:19;;;;;;;;;;;9.50;99.90;;;;;;2058384;28;19964;-73
2023/03/26 06:00:19;;;;;;;;;;;9.50;99.90;;;;;;2075526;28;20328;-73
2023/03/26 06:01:20;;;;;;;;;;;9.50;99.90;;;;;;2074785;28;19905;-73
2023/03/26 06:02:20;;;;;;;;;;;9.50;99.90;;;;;;2058089;28;19914;-73
2023/03/26 06:03:21;;;;;;;;;;;9.50;99.90;;;;;;2058920;28;19917;-73
2023/03/26 06:04:22;;;;;;;;;;;9.50;99.90;;;;;;2058582;28;19914;-73
2023/03/26 06:05:22;;;;;;;;;;;9.50;99.90;;;;;;2056879;28;19906;-73
2023/03/26 06:06:23;;;;;;;;;;;9.50;99.90;;;;;;2057813;28;19936;-73
2023/03/26 06:07:23;;;;;;;;;;;9.50;99.90;;;;;;2057911;28;20424;-73